createdAt,value
2017-08-04T11:18:36.636Z,10.50
2017-08-04T11:19:36.612Z,8.60
2017-08-04T11:20:36.590Z,6.20
2017-08-04T11:21:36.572Z,10.40
2017-08-04T11:22:36.548Z,12.20
2017-08-04T11:23:36.525Z,8.70
2017-08-04T11:24:27.087Z,12.90
2017-08-04T11:25:27.065Z,9.70
2017-08-04T11:26:27.045Z,8.90
2017-08-04T11:27:08.283Z,7.60
2017-08-04T11:28:08.262Z,8.30
2017-08-04T11:29:08.242Z,5.40
2017-08-04T11:30:00.119Z,8.00
2017-08-04T11:31:00.100Z,7.60
2017-08-04T11:32:00.078Z,10.70
2017-08-04T11:33:00.059Z,7.90
2017-08-04T11:34:00.038Z,14.00
2017-08-04T11:35:00.015Z,13.40
2017-08-04T11:35:59.994Z,12.90
2017-08-04T11:36:59.973Z,6.60
2017-08-04T11:37:59.959Z,8.80
2017-08-04T11:38:59.931Z,9.20
2017-08-04T11:39:59.910Z,7.60
2017-08-04T11:40:59.891Z,6.20
2017-08-04T11:42:55.892Z,4.40
2017-08-04T11:43:55.870Z,9.30
2017-08-04T11:44:55.849Z,6.60
2017-08-04T11:45:55.830Z,6.90
2017-08-04T11:46:55.806Z,8.30
2017-08-04T11:47:55.783Z,6.70
2017-08-04T11:48:55.763Z,8.30
2017-08-04T11:49:55.742Z,6.40
2017-08-04T11:50:55.724Z,6.90
2017-08-04T11:51:55.700Z,7.50
2017-08-04T11:52:55.679Z,7.50
2017-08-04T11:53:55.658Z,7.10
2017-08-04T11:54:55.638Z,7.90
2017-08-04T11:55:55.619Z,6.60
2017-08-04T11:56:55.595Z,6.60
2017-08-04T11:57:55.577Z,5.30
2017-08-04T11:58:55.558Z,8.80
2017-08-04T11:59:55.534Z,6.30
2017-08-04T12:00:55.515Z,6.80
2017-08-04T12:01:55.494Z,5.90
2017-08-04T12:02:55.474Z,8.40
2017-08-04T12:03:55.455Z,6.90
2017-08-04T12:04:55.434Z,10.20
2017-08-04T12:05:55.412Z,9.40
2017-08-04T12:06:55.391Z,7.40
2017-08-04T12:07:55.366Z,147.20
2017-08-04T12:08:55.350Z,48.50
2017-08-04T12:09:55.329Z,46.10
2017-08-04T12:10:55.310Z,42.80
2017-08-04T12:11:55.284Z,31.70
2017-08-04T12:12:55.268Z,17.40
2017-08-04T12:13:55.245Z,14.90
2017-08-04T12:14:55.229Z,12.70
2017-08-04T12:15:55.204Z,12.90
2017-08-04T12:16:55.185Z,9.90
2017-08-04T12:17:55.163Z,156.60
2017-08-04T12:18:55.144Z,410.60
2017-08-04T12:19:55.120Z,313.60
2017-08-04T12:20:55.104Z,297.20
2017-08-04T12:21:55.078Z,206.80
2017-08-04T12:22:55.063Z,212.70
2017-08-04T12:23:55.036Z,170.40
2017-08-04T12:24:55.016Z,153.30
2017-08-04T12:25:55.000Z,139.70
2017-08-04T12:26:54.980Z,124.40
2017-08-04T12:27:54.955Z,111.80
2017-08-04T12:28:54.939Z,107.20
2017-08-04T12:29:54.919Z,104.60
2017-08-04T12:30:54.896Z,96.40
2017-08-04T12:31:54.878Z,77.80
2017-08-04T12:32:54.859Z,70.60
2017-08-04T12:33:54.839Z,70.60
2017-08-04T12:34:54.816Z,65.20
2017-08-04T12:35:54.793Z,59.40
2017-08-04T12:36:54.775Z,56.40
2017-08-04T12:37:54.756Z,60.20
2017-08-04T12:38:54.739Z,61.70
2017-08-04T12:39:54.718Z,62.00
2017-08-04T12:40:54.693Z,54.60
2017-08-04T12:41:54.677Z,57.40
2017-08-04T12:42:54.653Z,44.40
2017-08-04T12:43:54.634Z,40.00
2017-08-04T12:44:54.614Z,45.90
2017-08-04T12:45:54.594Z,33.40
2017-08-04T12:46:54.575Z,34.10
2017-08-04T12:47:54.553Z,25.20
2017-08-04T12:48:54.537Z,24.80
2017-08-04T12:49:54.513Z,27.20
2017-08-04T12:50:54.494Z,28.90
2017-08-04T12:51:54.472Z,28.30
2017-08-04T12:52:54.454Z,29.00
2017-08-04T12:53:54.439Z,28.50
2017-08-04T12:54:54.415Z,25.70
2017-08-04T12:55:54.395Z,28.70
2017-08-04T12:56:54.375Z,24.40
2017-08-04T12:57:54.354Z,23.40
2017-08-04T12:58:54.332Z,25.00
2017-08-04T12:59:54.316Z,19.70
2017-08-04T13:00:54.297Z,20.30
2017-08-04T13:01:54.275Z,23.20
2017-08-04T13:02:54.257Z,22.30
2017-08-04T13:03:54.234Z,20.60
2017-08-04T13:04:54.212Z,23.80
2017-08-04T13:05:54.194Z,19.20
2017-08-04T13:06:54.175Z,22.90
2017-08-04T13:07:54.152Z,21.30
2017-08-04T13:08:54.135Z,20.90
2017-08-04T13:09:54.112Z,22.20
2017-08-04T13:10:54.095Z,19.50
2017-08-04T13:11:54.073Z,19.80
2017-08-04T13:12:54.056Z,41.70
2017-08-04T13:13:54.033Z,49.50
2017-08-04T13:14:54.017Z,29.90
2017-08-04T13:15:53.991Z,33.40
2017-08-04T13:16:53.971Z,31.10
2017-08-04T13:17:53.956Z,25.90
2017-08-04T13:18:53.938Z,24.60
2017-08-04T13:19:53.910Z,25.80
2017-08-04T13:20:53.890Z,26.90
2017-08-04T13:21:53.872Z,24.50
2017-08-04T13:22:53.852Z,24.70
2017-08-04T13:23:53.833Z,25.30
2017-08-04T13:24:53.810Z,23.00
2017-08-04T13:25:53.793Z,25.50
2017-08-04T13:26:53.775Z,20.40
2017-08-04T13:27:53.755Z,21.30
2017-08-04T13:28:53.730Z,21.60
2017-08-04T13:29:53.710Z,18.10
2017-08-04T13:30:53.691Z,17.50
2017-08-04T13:31:53.674Z,19.00
2017-08-04T13:32:53.651Z,20.10
2017-08-04T13:33:53.636Z,18.00
2017-08-04T13:34:53.615Z,15.70
2017-08-04T13:35:53.593Z,13.30
2017-08-04T13:36:53.571Z,19.70
2017-08-04T13:37:53.553Z,18.40
2017-08-04T13:38:53.535Z,16.00
2017-08-04T13:39:53.509Z,16.50
2017-08-04T13:40:53.490Z,17.20
2017-08-04T20:30:59.691Z,13.00
2017-08-04T20:31:59.664Z,17.00
2017-08-04T20:32:59.643Z,13.60
2017-08-04T20:33:59.623Z,13.40
2017-08-04T20:34:59.599Z,8.70
2017-08-04T20:35:59.579Z,89.40
2017-08-04T20:36:59.566Z,123.70
2017-08-04T20:37:59.540Z,254.90
2017-08-04T20:38:59.521Z,210.70
2017-08-04T20:39:59.522Z,104.50
2017-08-04T20:40:59.481Z,59.40
2017-08-04T20:41:59.460Z,81.40
2017-08-04T20:42:59.442Z,37.30
2017-08-04T20:43:59.425Z,34.90
2017-08-04T20:44:59.404Z,22.70
2017-08-04T20:45:59.387Z,17.10
2017-08-04T20:46:59.367Z,13.80
2017-08-04T20:47:59.351Z,12.50
2017-08-04T20:48:59.330Z,13.40
2017-08-04T20:49:59.314Z,14.20
2017-08-04T20:50:59.296Z,9.00
2017-08-04T20:51:59.279Z,8.10
2017-08-04T20:52:59.261Z,9.50
2017-08-04T20:53:59.240Z,8.10
2017-08-04T20:54:59.228Z,9.60
2017-08-04T20:55:59.207Z,9.80
2017-08-04T20:56:59.187Z,5.40
2017-08-04T20:57:59.166Z,6.60
2017-08-04T20:58:59.152Z,7.20
2017-08-04T20:59:59.128Z,5.90
2017-08-04T21:00:59.141Z,6.00
2017-08-04T21:01:59.095Z,6.30
2017-08-04T21:02:59.078Z,5.90
2017-08-04T21:03:59.059Z,4.30
2017-08-04T21:04:59.038Z,3.50
2017-08-04T21:05:59.023Z,5.00
2017-08-04T21:06:59.006Z,4.40
2017-08-04T21:07:58.986Z,4.50
2017-08-04T21:08:58.968Z,5.70
2017-08-04T21:09:58.947Z,4.10
2017-08-04T21:10:58.935Z,5.20
2017-08-04T21:11:58.912Z,6.00
2017-08-04T21:12:58.904Z,6.50
2017-08-04T21:13:58.880Z,4.70
2017-08-04T21:14:58.862Z,4.80
2017-08-04T21:15:58.840Z,4.40
2017-08-04T21:16:58.827Z,4.40
2017-08-04T21:17:58.808Z,3.40
2017-08-04T21:18:58.786Z,4.30
2017-08-04T21:19:58.772Z,4.00
2017-08-04T21:20:58.755Z,5.50
2017-08-04T21:21:58.737Z,5.20
2017-08-04T21:22:58.716Z,5.40
2017-08-04T21:23:58.697Z,4.40
2017-08-04T21:24:58.679Z,6.10
2017-08-04T21:25:58.662Z,4.80
2017-08-04T21:26:58.647Z,4.30
2017-08-04T21:27:58.628Z,5.20
2017-08-04T21:28:58.606Z,5.50
2017-08-04T21:29:58.591Z,4.00
2017-08-04T21:30:58.570Z,152.40
2017-08-04T21:31:58.551Z,171.10
2017-08-04T21:32:58.536Z,96.90
2017-08-04T21:33:58.515Z,95.70
2017-08-04T21:34:58.501Z,51.80
2017-08-04T21:35:58.481Z,38.70
2017-08-04T21:36:58.466Z,26.90
2017-08-04T21:37:58.443Z,18.60
2017-08-04T21:38:58.426Z,17.80
2017-08-04T21:39:58.411Z,14.70
2017-08-04T21:40:58.393Z,12.00
2017-08-04T21:41:58.374Z,10.90
2017-08-04T21:42:58.356Z,9.00
2017-08-04T21:43:58.342Z,9.80
2017-08-04T21:44:58.321Z,9.60
2017-08-04T21:45:58.302Z,7.00
2017-08-04T21:46:58.282Z,6.30
2017-08-04T21:47:58.269Z,5.70
2017-08-04T21:48:58.252Z,5.50
2017-08-04T21:49:58.230Z,5.50
2017-08-04T21:50:58.215Z,4.90
2017-08-04T21:51:58.194Z,5.90
2017-08-04T21:52:58.174Z,4.60
2017-08-04T21:53:58.158Z,4.70
2017-08-04T21:54:58.139Z,6.30
2017-08-04T21:55:58.120Z,5.10
2017-08-04T21:56:58.106Z,5.40
2017-08-04T21:57:58.083Z,3.90
2017-08-04T21:58:58.086Z,5.10
2017-08-04T21:59:58.050Z,4.40
2017-08-04T22:00:58.035Z,4.20
2017-08-04T22:01:58.013Z,5.50
2017-08-04T22:02:58.002Z,4.60
2017-08-04T22:03:57.976Z,4.60
2017-08-04T22:04:57.973Z,3.50
2017-08-04T22:05:57.944Z,8.80
2017-08-04T22:06:57.925Z,4.10
2017-08-04T22:07:57.910Z,5.60
2017-08-04T22:08:57.886Z,3.70
2017-08-04T22:09:57.869Z,2.70
2017-08-04T22:10:57.850Z,5.10
2017-08-04T22:11:57.834Z,5.90
2017-08-04T22:12:57.820Z,5.90
2017-08-04T22:13:57.809Z,5.60
2017-08-04T22:14:57.782Z,5.10
2017-08-04T22:15:57.763Z,4.80
2017-08-04T22:16:57.743Z,7.20
2017-08-04T22:17:57.723Z,4.80
2017-08-04T22:18:57.706Z,5.60
2017-08-04T22:19:57.696Z,6.60
2017-08-04T22:20:57.671Z,5.60
2017-08-04T22:21:57.653Z,5.70
2017-08-04T22:22:57.638Z,5.80
2017-08-04T22:23:57.617Z,4.40
2017-08-04T22:24:57.597Z,4.90
2017-08-04T22:25:57.579Z,4.20
2017-08-04T22:26:57.564Z,4.60
2017-08-04T22:27:57.542Z,5.90
2017-08-04T22:28:57.527Z,5.70
2017-08-04T22:29:57.505Z,5.20
2017-08-04T22:30:57.487Z,12.50
2017-08-04T22:31:57.473Z,570.10
2017-08-04T22:32:57.455Z,654.40
2017-08-04T22:33:57.439Z,673.70
2017-08-04T22:34:57.418Z,299.00
2017-08-04T22:35:57.397Z,183.70
2017-08-04T22:36:57.378Z,109.60
2017-08-04T22:37:57.358Z,71.60
2017-08-04T22:38:57.340Z,73.80
2017-08-04T22:39:57.323Z,57.30
2017-08-04T22:40:57.305Z,34.90
2017-08-04T22:41:57.289Z,23.50
2017-08-04T22:42:57.271Z,19.90
2017-08-04T22:43:57.249Z,21.80
2017-08-04T22:44:57.231Z,18.90
2017-08-04T22:45:57.214Z,13.40
2017-08-04T22:46:57.194Z,13.40
2017-08-04T22:47:57.179Z,15.80
2017-08-04T22:48:57.164Z,10.70
2017-08-04T22:49:57.138Z,11.00
2017-08-04T22:50:57.125Z,10.00
2017-08-04T22:51:57.106Z,9.60
2017-08-04T22:52:57.087Z,11.50
2017-08-04T22:53:57.069Z,10.70
2017-08-04T22:54:57.054Z,7.80
2017-08-04T22:55:57.032Z,11.00
2017-08-04T22:56:57.013Z,9.90
2017-08-04T22:57:56.992Z,10.40
2017-08-04T22:58:56.973Z,9.80
2017-08-04T22:59:56.956Z,12.30
2017-08-04T23:00:56.941Z,9.70
2017-08-04T23:01:56.920Z,6.60
2017-08-04T23:02:56.903Z,8.80
2017-08-04T23:03:56.884Z,13.20
2017-08-04T23:04:56.864Z,8.90
2017-08-04T23:05:56.850Z,9.10
2017-08-04T23:06:56.833Z,6.10
2017-08-04T23:07:56.813Z,6.70
2017-08-04T23:08:56.791Z,9.20
2017-08-04T23:09:56.774Z,5.50
2017-08-04T23:10:56.756Z,5.30
2017-08-04T23:11:56.736Z,5.00
2017-08-04T23:12:56.719Z,5.70
2017-08-04T23:13:56.698Z,8.20
2017-08-04T23:14:56.682Z,6.90
2017-08-04T23:15:56.664Z,5.60
2017-08-04T23:16:56.644Z,5.70
2017-08-04T23:17:56.626Z,5.80
2017-08-04T23:18:56.606Z,7.50
2017-08-04T23:19:56.591Z,8.10
2017-08-04T23:20:56.569Z,7.50
2017-08-04T23:21:56.554Z,5.70
2017-08-04T23:22:56.535Z,7.00
2017-08-04T23:23:56.514Z,5.40
2017-08-04T23:24:56.501Z,5.10
2017-08-04T23:25:56.476Z,6.00
2017-08-04T23:26:56.458Z,6.00
2017-08-04T23:27:56.445Z,5.10
2017-08-04T23:28:56.422Z,6.00
2017-08-04T23:29:56.405Z,7.00
2017-08-04T23:30:56.388Z,6.40
2017-08-04T23:31:56.370Z,6.70
2017-08-04T23:32:56.354Z,7.00
2017-08-04T23:33:56.332Z,7.40
2017-08-04T23:34:56.314Z,5.50
2017-08-04T23:35:56.294Z,4.90
2017-08-04T23:36:56.278Z,5.80
2017-08-04T23:37:56.259Z,6.20
2017-08-04T23:38:56.239Z,4.10
2017-08-04T23:39:56.224Z,4.60
2017-08-04T23:40:56.205Z,5.20
2017-08-04T23:41:56.185Z,6.50
2017-08-04T23:42:56.165Z,4.40
2017-08-04T23:43:56.149Z,3.80
2017-08-04T23:44:56.133Z,5.00
2017-08-04T23:45:56.110Z,6.10
2017-08-04T23:46:56.094Z,7.20
2017-08-04T23:47:56.075Z,4.00
2017-08-04T23:48:56.061Z,5.30
2017-08-04T23:49:56.038Z,3.90
2017-08-04T23:50:56.024Z,4.00
2017-08-04T23:51:56.004Z,5.10
2017-08-04T23:52:55.982Z,5.80
2017-08-04T23:53:55.977Z,5.60
2017-08-04T23:54:55.945Z,3.40
2017-08-04T23:55:55.928Z,4.90
2017-08-04T23:56:55.909Z,5.90
2017-08-04T23:57:55.892Z,4.90
2017-08-04T23:58:55.871Z,5.70
2017-08-04T23:59:55.855Z,6.30
